createdAt,value
2022-11-21T00:01:28.716Z,29.58
2022-11-21T00:03:55.214Z,31.45
2022-11-21T00:06:23.518Z,34.67
2022-11-21T00:08:50.264Z,30.17
2022-11-21T00:11:16.902Z,34.22
2022-11-21T00:13:43.938Z,32.78
2022-11-21T00:16:13.759Z,32.42
2022-11-21T00:18:40.532Z,31.80
2022-11-21T00:21:10.194Z,34.40
2022-11-21T00:23:36.869Z,31.90
2022-11-21T00:26:13.808Z,32.65
2022-11-21T00:28:40.412Z,30.95
2022-11-21T00:31:07.266Z,30.92
2022-11-21T00:33:38.680Z,31.42
2022-11-21T00:36:12.054Z,31.35
2022-11-21T00:38:38.520Z,35.25
2022-11-21T00:41:05.848Z,32.53
2022-11-21T00:43:32.584Z,33.50
2022-11-21T00:46:01.459Z,31.38
2022-11-21T00:48:28.968Z,28.83
2022-11-21T00:50:55.598Z,34.72
2022-11-21T00:53:22.066Z,30.98
2022-11-21T00:55:48.970Z,29.85
2022-11-21T00:58:15.430Z,35.10
2022-11-21T01:00:42.225Z,30.85
2022-11-21T01:03:08.785Z,32.90
2022-11-21T01:05:35.242Z,30.77
2022-11-21T01:08:07.442Z,31.55
2022-11-21T01:10:35.829Z,30.73
2022-11-21T01:13:02.879Z,36.75
2022-11-21T01:15:30.423Z,36.03
2022-11-21T01:17:56.943Z,34.20
2022-11-21T01:20:23.495Z,32.33
2022-11-21T01:22:50.023Z,33.45
2022-11-21T01:25:16.532Z,34.40
2022-11-21T01:27:43.036Z,32.15
2022-11-21T01:30:13.300Z,32.13
2022-11-21T01:32:39.902Z,32.45
2022-11-21T01:35:09.659Z,35.22
2022-11-21T01:37:36.176Z,37.08
2022-11-21T01:40:03.331Z,35.88
2022-11-21T01:42:29.807Z,32.30
2022-11-21T01:44:56.374Z,33.85
2022-11-21T01:47:23.575Z,36.08
2022-11-21T01:49:51.658Z,34.60
2022-11-21T01:52:28.780Z,37.17
2022-11-21T01:55:02.156Z,38.05
2022-11-21T01:57:33.281Z,36.15
2022-11-21T02:00:06.781Z,32.75
2022-11-21T02:02:36.551Z,32.30
2022-11-21T02:05:07.736Z,33.17
2022-11-21T02:07:38.643Z,30.88
2022-11-21T02:10:10.066Z,28.73
2022-11-21T02:12:58.667Z,33.10
2022-11-21T02:15:27.735Z,31.45
2022-11-21T02:17:54.503Z,34.70
2022-11-21T02:20:25.970Z,34.00
2022-11-21T02:23:01.645Z,35.10
2022-11-21T02:25:30.788Z,33.72
2022-11-21T02:28:03.854Z,36.00
2022-11-21T02:30:32.583Z,32.70
2022-11-21T02:32:59.334Z,36.60
2022-11-21T02:35:25.921Z,34.83
2022-11-21T02:38:06.439Z,32.67
2022-11-21T02:40:38.129Z,30.67
2022-11-21T02:43:13.387Z,32.25
2022-11-21T02:45:42.329Z,32.60
2022-11-21T02:48:09.654Z,31.05
2022-11-21T02:50:38.585Z,33.60
2022-11-21T02:53:07.005Z,30.30
2022-11-21T02:55:33.524Z,28.42
2022-11-21T02:58:04.644Z,29.77
2022-11-21T03:02:58.887Z,30.27
2022-11-21T03:05:25.427Z,34.55
2022-11-21T03:07:51.933Z,30.83
2022-11-21T03:10:18.499Z,30.30
2022-11-21T03:12:44.968Z,27.02
2022-11-21T03:15:15.488Z,26.38
2022-11-21T03:17:42.678Z,30.40
2022-11-21T03:20:10.637Z,28.13
2022-11-21T03:22:37.167Z,32.08
2022-11-21T03:25:04.110Z,28.05
2022-11-21T03:27:30.564Z,31.48
2022-11-21T03:29:57.044Z,29.73
2022-11-21T03:32:23.520Z,28.55
2022-11-21T03:34:52.109Z,31.23
2022-11-21T03:37:18.745Z,33.28
2022-11-21T03:39:45.195Z,33.95
2022-11-21T03:42:11.697Z,31.83
2022-11-21T03:44:38.137Z,33.90
2022-11-21T03:47:04.710Z,31.27
2022-11-21T03:49:31.165Z,32.28
2022-11-21T03:51:57.676Z,33.72
2022-11-21T03:54:24.159Z,31.38
2022-11-21T03:56:50.612Z,29.45
2022-11-21T03:59:17.220Z,27.05
2022-11-21T04:01:43.956Z,28.65
2022-11-21T04:04:10.452Z,28.20
2022-11-21T04:06:36.892Z,28.85
2022-11-21T04:09:03.589Z,27.00
2022-11-21T04:11:30.106Z,29.13
2022-11-21T04:13:56.626Z,31.48
2022-11-21T04:16:23.059Z,30.52
2022-11-21T04:18:49.656Z,29.50
2022-11-21T04:21:16.105Z,32.03
2022-11-21T04:23:45.316Z,36.20
2022-11-21T04:26:11.924Z,32.67
2022-11-21T04:28:38.374Z,32.20
2022-11-21T04:31:10.476Z,33.38
2022-11-21T04:33:38.726Z,34.55
2022-11-21T04:36:06.088Z,34.80
2022-11-21T04:38:32.541Z,36.53
2022-11-21T04:40:59.013Z,33.70
2022-11-21T04:43:28.909Z,34.22
2022-11-21T04:45:55.390Z,37.20
2022-11-21T04:48:21.861Z,36.10
2022-11-21T04:50:48.683Z,38.67
2022-11-21T04:53:15.181Z,36.20
2022-11-21T04:55:41.766Z,36.35
2022-11-21T04:58:08.247Z,38.17
2022-11-21T05:00:34.853Z,40.13
2022-11-21T05:03:05.459Z,38.00
2022-11-21T05:05:32.461Z,45.38
2022-11-21T05:07:58.981Z,46.53
2022-11-21T05:10:25.649Z,45.97
2022-11-21T05:13:18.384Z,47.75
2022-11-21T05:15:48.263Z,44.50
2022-11-21T05:18:14.749Z,46.40
2022-11-21T05:20:41.239Z,49.33
2022-11-21T05:23:07.761Z,44.35
2022-11-21T05:25:34.222Z,42.65
2022-11-21T05:28:00.697Z,43.97
2022-11-21T05:30:27.196Z,45.60
2022-11-21T05:32:53.724Z,47.85
2022-11-21T05:35:20.236Z,46.45
2022-11-21T05:37:46.756Z,47.33
2022-11-21T05:40:13.623Z,47.88
2022-11-21T05:43:00.669Z,44.35
2022-11-21T05:45:27.403Z,48.28
2022-11-21T05:47:53.948Z,46.17
2022-11-21T05:50:20.435Z,49.90
2022-11-21T05:52:46.905Z,48.70
2022-11-21T05:55:13.469Z,52.90
2022-11-21T05:57:39.920Z,45.70
2022-11-21T06:00:06.950Z,49.22
2022-11-21T06:02:52.119Z,42.13
2022-11-21T06:05:18.650Z,41.55
2022-11-21T06:07:45.361Z,41.55
2022-11-21T06:10:11.859Z,39.22
2022-11-21T06:12:38.317Z,37.45
2022-11-21T06:15:04.980Z,39.35
2022-11-21T06:17:32.590Z,38.05
2022-11-21T06:19:59.137Z,40.72
2022-11-21T06:22:25.609Z,35.50
2022-11-21T06:24:52.123Z,42.53
2022-11-21T06:27:18.674Z,33.70
2022-11-21T06:29:45.128Z,38.72
2022-11-21T06:32:11.766Z,42.55
2022-11-21T06:34:38.288Z,40.03
2022-11-21T06:37:04.807Z,41.55
2022-11-21T06:39:31.263Z,39.72
2022-11-21T06:41:58.962Z,38.10
2022-11-21T06:44:25.655Z,36.30
2022-11-21T06:46:52.415Z,34.92
2022-11-21T06:49:18.960Z,38.38
2022-11-21T06:51:45.440Z,35.45
2022-11-21T06:54:16.525Z,38.80
2022-11-21T06:56:43.640Z,35.80
2022-11-21T06:59:10.185Z,34.20
2022-11-21T07:01:36.703Z,33.95
2022-11-21T07:04:03.376Z,33.85
2022-11-21T07:06:29.873Z,35.13
2022-11-21T07:09:25.183Z,32.60
2022-11-21T07:11:43.233Z,29.38
2022-11-21T07:14:10.056Z,32.13
2022-11-21T07:16:36.718Z,30.55
2022-11-21T07:19:03.318Z,31.70
2022-11-21T07:21:29.907Z,32.47
2022-11-21T07:23:56.448Z,37.03
2022-11-21T07:26:22.922Z,35.72
2022-11-21T07:28:49.371Z,28.00
2022-11-21T07:31:15.865Z,30.83
2022-11-21T07:33:46.635Z,27.55
2022-11-21T07:36:13.508Z,27.85
2022-11-21T07:38:41.399Z,25.55
2022-11-21T07:41:08.785Z,28.23
2022-11-21T07:43:35.259Z,22.90
2022-11-21T07:46:01.859Z,24.17
2022-11-21T07:48:28.327Z,25.08
2022-11-21T07:50:54.838Z,19.63
2022-11-21T07:53:21.360Z,23.05
2022-11-21T07:55:47.809Z,19.35
2022-11-21T07:58:16.413Z,23.40
2022-11-21T08:00:43.242Z,18.88
2022-11-21T08:03:13.940Z,20.25
2022-11-21T08:05:44.548Z,28.13
2022-11-21T08:08:12.783Z,21.80
2022-11-21T08:10:41.345Z,17.92
2022-11-21T08:13:08.150Z,24.65
2022-11-21T08:15:34.631Z,21.67
2022-11-21T08:18:14.761Z,20.73
2022-11-21T08:20:41.936Z,22.23
2022-11-21T08:23:09.936Z,21.92
2022-11-21T08:25:41.249Z,21.38
2022-11-21T08:28:09.533Z,20.50
2022-11-21T08:30:37.096Z,21.08
2022-11-21T08:33:04.181Z,23.73
2022-11-21T08:35:30.997Z,17.10
2022-11-21T08:37:59.048Z,21.77
2022-11-21T08:40:27.458Z,27.13
2022-11-21T08:43:10.517Z,20.65
2022-11-21T08:45:39.223Z,19.67
2022-11-21T08:48:11.446Z,20.02
2022-11-21T08:50:37.980Z,22.23
2022-11-21T08:53:04.482Z,18.00
2022-11-21T08:55:31.135Z,20.05
2022-11-21T08:57:58.515Z,15.05
2022-11-21T09:00:25.285Z,18.42
2022-11-21T09:02:51.743Z,13.93
2022-11-21T09:05:18.236Z,15.27
2022-11-21T09:07:44.841Z,14.80
2022-11-21T09:10:11.762Z,18.23
2022-11-21T09:12:38.306Z,15.80
2022-11-21T09:15:24.436Z,16.48
2022-11-21T09:18:07.114Z,16.98
2022-11-21T09:20:40.238Z,14.75
2022-11-21T09:23:14.999Z,15.38
2022-11-21T09:25:41.831Z,18.90
2022-11-21T09:28:10.164Z,13.73
2022-11-21T09:30:37.016Z,14.73
2022-11-21T09:33:06.228Z,15.85
2022-11-21T09:35:33.205Z,15.07
2022-11-21T09:38:00.368Z,15.27
2022-11-21T09:40:29.337Z,15.85
2022-11-21T09:43:35.972Z,18.73
2022-11-21T09:46:14.968Z,17.90
2022-11-21T09:48:57.617Z,17.23
2022-11-21T09:51:25.877Z,25.17
2022-11-21T09:54:03.809Z,16.85
2022-11-21T09:56:35.270Z,17.52
2022-11-21T09:59:20.514Z,19.27
2022-11-21T10:01:47.339Z,20.23
2022-11-21T10:04:14.165Z,16.92
2022-11-21T10:07:00.905Z,18.42
2022-11-21T10:09:49.508Z,18.13
2022-11-21T10:12:37.115Z,15.65
2022-11-21T10:15:03.875Z,16.65
2022-11-21T10:17:53.445Z,20.42
2022-11-21T10:20:28.920Z,15.35
2022-11-21T10:23:34.221Z,15.07
2022-11-21T10:26:50.188Z,15.32
2022-11-21T10:29:28.093Z,16.65
2022-11-21T10:31:58.537Z,16.92
2022-11-21T10:34:37.187Z,15.35
2022-11-21T10:37:15.595Z,16.00
2022-11-21T10:39:49.571Z,16.35
2022-11-21T10:42:45.110Z,15.77
2022-11-21T10:45:16.773Z,14.48
2022-11-21T10:47:44.842Z,16.50
2022-11-21T10:50:34.088Z,14.38
2022-11-21T10:53:29.463Z,22.33
2022-11-21T10:56:01.768Z,18.35
2022-11-21T10:58:42.626Z,15.18
2022-11-21T11:01:24.416Z,15.70
2022-11-21T11:04:27.253Z,17.00
2022-11-21T11:06:54.690Z,16.50
2022-11-21T11:09:34.868Z,15.95
2022-11-21T11:12:49.729Z,18.30
2022-11-21T11:15:22.840Z,18.15
2022-11-21T11:18:07.371Z,17.05
2022-11-21T11:20:40.433Z,15.75
2022-11-21T11:23:28.047Z,16.63
2022-11-21T11:25:59.517Z,15.57
2022-11-21T11:28:34.034Z,15.93
2022-11-21T11:31:01.223Z,18.95
2022-11-21T11:33:39.678Z,14.55
2022-11-21T11:36:15.275Z,17.55
2022-11-21T11:38:47.088Z,16.08
2022-11-21T11:42:03.415Z,13.50
2022-11-21T11:45:06.306Z,15.35
2022-11-21T11:47:41.830Z,18.33
2022-11-21T11:50:26.881Z,15.30
2022-11-21T11:53:02.579Z,14.68
2022-11-21T11:55:53.221Z,13.48
2022-11-21T11:58:41.765Z,18.70
2022-11-21T12:01:12.649Z,16.48
2022-11-21T12:03:58.326Z,18.83
2022-11-21T12:07:04.174Z,19.63
2022-11-21T12:09:22.044Z,18.10
2022-11-21T12:12:15.706Z,21.42
2022-11-21T12:15:48.504Z,19.65
2022-11-21T12:20:59.451Z,18.50
2022-11-21T12:23:42.324Z,19.73
2022-11-21T12:26:20.481Z,19.50
2022-11-21T12:29:17.323Z,19.95
2022-11-21T12:31:49.380Z,18.88
2022-11-21T12:34:27.911Z,23.75
2022-11-21T12:37:03.308Z,20.08
2022-11-21T12:40:17.929Z,16.63
2022-11-21T12:42:58.724Z,20.90
2022-11-21T12:45:32.091Z,16.10
2022-11-21T12:48:29.525Z,13.77
2022-11-21T12:51:28.855Z,17.17
2022-11-21T12:54:24.530Z,18.75
2022-11-21T12:57:01.932Z,14.75
2022-11-21T12:59:31.177Z,15.60
2022-11-21T13:02:08.811Z,13.70
2022-11-21T13:04:38.890Z,11.68
2022-11-21T13:07:06.689Z,13.05
2022-11-21T13:09:46.526Z,13.77
2022-11-21T13:12:40.840Z,15.48
2022-11-21T13:15:24.421Z,14.60
2022-11-21T13:17:57.898Z,16.17
2022-11-21T13:20:40.228Z,14.85
2022-11-21T13:23:42.021Z,16.25
2022-11-21T13:26:29.587Z,16.60
2022-11-21T13:29:13.779Z,15.60
2022-11-21T13:31:41.249Z,16.52
2022-11-21T13:34:38.344Z,16.80
2022-11-21T13:37:05.727Z,15.77
2022-11-21T13:39:36.889Z,14.82
2022-11-21T13:42:24.659Z,16.45
2022-11-21T13:44:51.624Z,17.50
2022-11-21T13:47:57.194Z,17.20
2022-11-21T13:50:59.206Z,17.55
2022-11-21T13:53:51.055Z,18.83
2022-11-21T13:56:47.171Z,17.70
2022-11-21T14:02:00.278Z,16.10
2022-11-21T14:04:46.998Z,18.58
2022-11-21T14:07:23.920Z,17.17
2022-11-21T14:09:52.713Z,24.38
2022-11-21T14:12:33.088Z,16.48
2022-11-21T14:15:00.979Z,17.35
2022-11-21T14:17:50.161Z,19.58
2022-11-21T14:20:27.255Z,19.10
2022-11-21T14:23:06.218Z,21.63
2022-11-21T14:25:41.427Z,17.25
2022-11-21T14:28:33.105Z,18.25
2022-11-21T14:31:02.128Z,18.33
2022-11-21T14:33:34.406Z,18.83
2022-11-21T14:36:12.869Z,15.75
2022-11-21T14:38:50.954Z,18.13
2022-11-21T14:41:26.946Z,18.40
2022-11-21T14:44:03.116Z,18.40
2022-11-21T14:46:40.699Z,17.65
2022-11-21T14:49:10.089Z,15.77
2022-11-21T14:51:36.950Z,14.70
2022-11-21T14:54:03.648Z,18.95
2022-11-21T14:56:32.159Z,15.40
2022-11-21T14:59:03.479Z,17.02
2022-11-21T15:01:32.384Z,18.10
2022-11-21T15:03:59.326Z,16.95
2022-11-21T15:06:29.960Z,16.55
2022-11-21T15:10:11.569Z,16.13
2022-11-21T15:12:05.169Z,17.73
2022-11-21T15:14:58.366Z,16.75
2022-11-21T15:17:26.344Z,17.08
2022-11-21T15:20:11.717Z,17.38
2022-11-21T15:22:41.325Z,19.23
2022-11-21T15:25:15.632Z,16.10
2022-11-21T15:27:43.351Z,15.57
2022-11-21T15:30:09.760Z,16.75
2022-11-21T15:33:02.974Z,19.58
2022-11-21T15:35:38.601Z,21.15
2022-11-21T15:38:30.201Z,17.08
2022-11-21T15:40:57.271Z,18.25
2022-11-21T15:44:14.909Z,14.30
2022-11-21T15:46:44.949Z,18.92
2022-11-21T15:49:32.083Z,16.05
2022-11-21T15:54:47.309Z,19.75
2022-11-21T15:57:14.293Z,16.40
2022-11-21T15:57:16.719Z,17.83
2022-11-21T15:59:43.733Z,14.25
2022-11-21T16:02:12.840Z,14.63
2022-11-21T16:04:39.444Z,14.60
2022-11-21T16:07:05.980Z,16.95
2022-11-21T16:09:33.124Z,16.02
2022-11-21T16:11:59.577Z,14.38
2022-11-21T16:14:26.063Z,16.10
2022-11-21T16:16:52.560Z,16.67
2022-11-21T16:19:19.001Z,21.98
2022-11-21T16:21:45.551Z,23.42
2022-11-21T16:24:12.003Z,18.05
2022-11-21T16:26:38.597Z,18.92
2022-11-21T16:29:08.244Z,17.95
2022-11-21T16:31:34.880Z,23.08
2022-11-21T16:34:01.679Z,19.90
2022-11-21T16:36:31.008Z,19.90
2022-11-21T16:39:01.824Z,22.73
2022-11-21T16:41:32.002Z,24.13
2022-11-21T16:43:58.763Z,20.02
2022-11-21T16:46:25.962Z,21.33
2022-11-21T16:48:59.857Z,19.33
2022-11-21T16:51:27.265Z,20.10
2022-11-21T16:53:54.351Z,19.05
2022-11-21T16:56:20.883Z,20.83
2022-11-21T16:58:47.391Z,18.80
2022-11-21T17:01:19.850Z,21.10
2022-11-21T17:03:51.164Z,21.08
2022-11-21T17:06:21.646Z,20.55
2022-11-21T17:08:48.425Z,22.60
2022-11-21T17:11:16.216Z,19.25
2022-11-21T17:13:43.960Z,18.42
2022-11-21T17:16:15.515Z,19.58
2022-11-21T17:18:42.595Z,19.05
2022-11-21T17:21:11.716Z,19.55
2022-11-21T17:23:40.378Z,24.75
2022-11-21T17:26:18.083Z,23.30
2022-11-21T17:28:50.402Z,23.50
2022-11-21T17:31:16.869Z,21.55
2022-11-21T17:33:44.175Z,22.38
2022-11-21T17:36:14.862Z,27.13
2022-11-21T17:38:43.064Z,28.33
2022-11-21T17:41:12.769Z,26.00
2022-11-21T17:43:39.505Z,21.77
2022-11-21T17:46:11.165Z,20.48
2022-11-21T17:48:38.484Z,20.80
2022-11-21T17:51:25.572Z,18.63
2022-11-21T17:53:52.976Z,19.20
2022-11-21T17:56:22.272Z,20.80
2022-11-21T17:58:49.657Z,22.17
2022-11-21T18:01:19.655Z,22.25
2022-11-21T18:03:53.082Z,23.23
2022-11-21T18:06:19.705Z,21.38
2022-11-21T18:08:48.281Z,20.75
2022-11-21T18:11:21.094Z,21.48
2022-11-21T18:13:48.575Z,24.63
2022-11-21T18:16:19.034Z,35.63
2022-11-21T18:18:45.615Z,35.78
2022-11-21T18:21:15.321Z,42.85
2022-11-21T18:23:43.976Z,39.95
2022-11-21T18:26:17.576Z,26.92
2022-11-21T18:28:44.034Z,24.42
2022-11-21T18:31:22.603Z,24.85
2022-11-21T18:33:54.160Z,23.38
2022-11-21T18:36:21.789Z,31.13
2022-11-21T18:38:53.711Z,28.42
2022-11-21T18:41:27.002Z,36.67
2022-11-21T18:43:59.023Z,34.47
2022-11-21T18:46:27.318Z,39.13
2022-11-21T18:49:04.289Z,35.95
2022-11-21T18:51:32.512Z,37.30
2022-11-21T18:54:03.992Z,42.25
2022-11-21T18:56:31.032Z,36.35
2022-11-21T18:59:00.543Z,39.97
2022-11-21T19:01:29.162Z,41.28
2022-11-21T19:03:56.719Z,40.95
2022-11-21T19:06:24.952Z,41.80
2022-11-21T19:08:53.510Z,36.65
2022-11-21T19:11:22.236Z,35.55
2022-11-21T19:13:48.919Z,39.75
2022-11-21T19:16:18.592Z,36.65
2022-11-21T19:18:59.774Z,38.88
2022-11-21T19:21:36.081Z,41.55
2022-11-21T19:24:02.888Z,37.53
2022-11-21T19:26:31.017Z,35.85
2022-11-21T19:29:00.592Z,35.58
2022-11-21T19:31:27.039Z,30.73
2022-11-21T19:33:53.558Z,27.35
2022-11-21T19:36:22.047Z,29.50
2022-11-21T19:38:51.195Z,32.67
2022-11-21T19:41:25.761Z,30.55
2022-11-21T19:43:54.341Z,29.27
2022-11-21T19:46:26.716Z,31.67
2022-11-21T19:48:55.490Z,32.05
2022-11-21T19:51:24.876Z,38.50
2022-11-21T19:53:53.829Z,34.78
2022-11-21T19:56:22.691Z,32.05
2022-11-21T19:58:49.321Z,28.83
2022-11-21T20:01:18.313Z,29.95
2022-11-21T20:03:50.720Z,33.03
2022-11-21T20:06:25.642Z,33.50
2022-11-21T20:08:57.312Z,35.10
2022-11-21T20:11:25.346Z,37.50
2022-11-21T20:13:52.323Z,33.72
2022-11-21T20:16:24.842Z,34.85
2022-11-21T20:18:52.361Z,37.88
2022-11-21T20:21:19.799Z,32.08
2022-11-21T20:23:47.141Z,21.25
2022-11-21T20:26:15.454Z,10.88
2022-11-21T20:28:45.168Z,24.73
2022-11-21T20:31:14.895Z,12.88
2022-11-21T20:33:43.743Z,14.63
2022-11-21T20:36:17.298Z,19.48
2022-11-21T20:38:45.183Z,28.33
2022-11-21T20:41:11.978Z,27.95
2022-11-21T20:44:20.061Z,32.67
2022-11-21T20:46:25.816Z,30.15
2022-11-21T20:48:52.928Z,29.02
2022-11-21T20:54:06.440Z,28.10
2022-11-21T20:56:34.602Z,31.02
2022-11-21T20:59:01.382Z,24.42
2022-11-21T21:01:30.789Z,28.35
2022-11-21T21:03:57.465Z,26.25
2022-11-21T21:06:24.267Z,27.50
2022-11-21T21:08:51.898Z,26.73
2022-11-21T21:11:49.698Z,28.75
2022-11-21T21:14:07.814Z,27.25
2022-11-21T21:16:34.407Z,29.95
2022-11-21T21:19:01.074Z,29.70
2022-11-21T21:21:30.504Z,27.15
2022-11-21T21:24:09.175Z,29.33
2022-11-21T21:26:42.105Z,26.65
2022-11-21T21:29:11.728Z,29.58
2022-11-21T21:31:38.178Z,26.40
2022-11-21T21:34:04.712Z,28.05
2022-11-21T21:36:32.151Z,29.25
2022-11-21T21:39:00.258Z,32.60
2022-11-21T21:41:28.617Z,34.67
2022-11-21T21:43:56.228Z,33.50
2022-11-21T21:46:25.508Z,32.58
2022-11-21T21:48:55.787Z,35.15
2022-11-21T21:51:23.661Z,29.15
2022-11-21T21:53:51.862Z,30.02
2022-11-21T21:56:20.507Z,28.75
2022-11-21T21:58:48.975Z,28.42
2022-11-21T22:01:21.078Z,29.90
2022-11-21T22:03:48.447Z,31.48
2022-11-21T22:06:17.484Z,32.25
2022-11-21T22:08:45.652Z,31.63
2022-11-21T22:11:14.658Z,36.20
2022-11-21T22:13:44.901Z,45.38
2022-11-21T22:16:15.423Z,37.17
2022-11-21T22:18:42.380Z,41.03
2022-11-21T22:21:20.491Z,42.63
2022-11-21T22:26:37.649Z,60.17
2022-11-21T22:29:04.182Z,60.47
2022-11-21T22:31:31.532Z,64.38
2022-11-21T22:33:58.791Z,64.15
2022-11-21T22:36:25.521Z,66.00
2022-11-21T22:38:56.329Z,59.38
2022-11-21T22:41:25.590Z,70.43
2022-11-21T22:43:54.819Z,77.45
2022-11-21T22:46:22.616Z,75.20
2022-11-21T22:48:49.229Z,62.85
2022-11-21T22:51:19.011Z,73.32
2022-11-21T22:53:46.654Z,72.50
2022-11-21T22:56:15.290Z,73.85
2022-11-21T22:58:45.937Z,66.50
2022-11-21T23:01:18.711Z,64.50
2022-11-21T23:03:45.917Z,63.60
2022-11-21T23:06:18.355Z,71.20
2022-11-21T23:08:45.432Z,71.82
2022-11-21T23:11:17.178Z,72.78
2022-11-21T23:13:45.428Z,75.70
2022-11-21T23:16:13.164Z,72.13
2022-11-21T23:18:40.197Z,80.47
2022-11-21T23:21:06.922Z,68.15
2022-11-21T23:23:37.073Z,76.55
2022-11-21T23:26:04.833Z,76.50
2022-11-21T23:28:31.305Z,84.55
2022-11-21T23:30:58.099Z,71.90
2022-11-21T23:33:25.521Z,79.03
2022-11-21T23:35:52.039Z,82.80
2022-11-21T23:38:19.147Z,80.28
2022-11-21T23:40:46.736Z,79.72
2022-11-21T23:43:14.555Z,85.75
2022-11-21T23:45:41.593Z,83.72
2022-11-21T23:48:08.493Z,80.95
2022-11-21T23:50:35.086Z,88.55
2022-11-21T23:53:01.896Z,85.38
2022-11-21T23:55:28.392Z,87.45
2022-11-21T23:57:54.990Z,88.72
